Time;durP1;ratioP1;P1;durP2;ratioP2;P2;SDS_P1;SDS_P2;PMS_P1;PMS_P2;Temp;Humidity;BMP_temperature;BMP_pressure;BME280_temperature;BME280_humidity;BME280_pressure;Samples;Min_cycle;Max_cycle;Signal;HPM_P1;HPM_P2
2024/01/01 00:00:08;;;;;;;28.07;19.30;;;9.20;99.90;;;;;;5018431;28;20215;-81
2024/01/01 00:02:44;;;;;;;26.20;18.80;;;9.30;99.90;;;;;;5027836;28;20186;-80
2024/01/01 00:05:12;;;;;;;25.40;17.70;;;9.30;99.90;;;;;;5018727;28;20191;-81
2024/01/01 00:07:39;;;;;;;20.43;14.17;;;9.40;99.90;;;;;;5019920;28;20199;-80
2024/01/01 00:10:07;;;;;;;19.27;13.13;;;9.40;99.90;;;;;;5027269;28;20229;-80
2024/01/01 00:12:35;;;;;;;19.63;11.40;;;9.40;99.90;;;;;;5022259;28;20196;-80
2024/01/01 00:15:03;;;;;;;16.50;12.30;;;9.50;99.90;;;;;;5016767;28;20216;-80
2024/01/01 00:17:31;;;;;;;16.13;10.23;;;9.40;99.90;;;;;;5045147;28;20199;-80
2024/01/01 00:20:00;;;;;;;17.20;10.13;;;9.40;99.90;;;;;;5029760;28;20225;-80
2024/01/01 00:22:27;;;;;;;16.17;9.90;;;9.50;99.90;;;;;;5023681;28;20191;-80
2024/01/01 00:24:55;;;;;;;15.47;9.33;;;9.50;99.90;;;;;;5037431;28;20194;-80
2024/01/01 00:27:22;;;;;;;11.33;7.27;;;9.50;99.90;;;;;;5019331;28;20203;-80
2024/01/01 00:29:49;;;;;;;10.83;6.87;;;9.60;99.90;;;;;;5019425;28;20295;-81
2024/01/01 00:32:17;;;;;;;13.53;7.33;;;9.50;99.90;;;;;;5018486;28;20214;-80
2024/01/01 00:34:46;;;;;;;16.10;9.23;;;9.60;99.90;;;;;;5035452;28;20653;-80
2024/01/01 00:37:14;;;;;;;13.73;7.37;;;9.50;99.90;;;;;;5019658;28;20199;-81
2024/01/01 00:39:41;;;;;;;12.93;6.97;;;9.50;99.90;;;;;;5014367;28;20223;-80
2024/01/01 00:42:09;;;;;;;12.30;6.93;;;9.50;99.90;;;;;;5017956;28;20664;-81
2024/01/01 00:44:36;;;;;;;14.43;6.60;;;9.50;99.90;;;;;;5017943;28;20230;-80
2024/01/01 00:47:04;;;;;;;11.80;7.03;;;9.60;99.90;;;;;;5017265;28;20202;-81
2024/01/01 00:49:31;;;;;;;10.40;6.67;;;9.50;99.90;;;;;;5017581;28;20238;-81
2024/01/01 00:52:00;;;;;;;10.43;6.70;;;9.50;99.90;;;;;;5017379;28;20553;-82
2024/01/01 00:54:28;;;;;;;9.67;6.10;;;9.50;99.90;;;;;;5016917;28;20207;-80
2024/01/01 00:56:55;;;;;;;11.63;5.90;;;9.50;99.90;;;;;;5017341;28;20671;-81
2024/01/01 00:59:23;;;;;;;11.13;5.80;;;9.50;99.90;;;;;;5034947;28;20586;-81
2024/01/01 01:01:51;;;;;;;11.90;5.83;;;9.50;99.90;;;;;;5017541;28;20206;-81
2024/01/01 01:04:18;;;;;;;14.13;6.10;;;9.40;99.90;;;;;;5017611;28;20567;-81
2024/01/01 01:06:45;;;;;;;11.20;4.97;;;9.40;99.90;;;;;;5017238;28;20195;-81
2024/01/01 01:09:15;;;;;;;12.93;5.73;;;9.50;99.90;;;;;;5021135;28;20242;-80
2024/01/01 01:11:42;;;;;;;8.50;5.80;;;9.30;99.90;;;;;;5042546;28;20555;-80
2024/01/01 01:14:10;;;;;;;13.60;5.23;;;9.40;99.90;;;;;;5021689;28;20202;-80
2024/01/01 01:16:38;;;;;;;13.90;6.00;;;9.40;99.90;;;;;;5031141;28;20220;-80
2024/01/01 01:19:05;;;;;;;12.90;6.60;;;9.40;99.90;;;;;;5020535;28;20219;-80
2024/01/01 01:21:33;;;;;;;11.47;6.50;;;9.40;99.90;;;;;;5025523;28;20202;-80
2024/01/01 01:24:00;;;;;;;11.80;5.77;;;9.40;99.90;;;;;;5025329;28;20195;-80
2024/01/01 01:26:29;;;;;;;10.60;4.80;;;9.40;99.90;;;;;;5025672;28;20194;-80
2024/01/01 01:28:57;;;;;;;9.47;4.27;;;9.40;99.90;;;;;;5010099;28;20248;-80
2024/01/01 01:31:25;;;;;;;8.33;4.60;;;9.40;99.90;;;;;;5017188;28;20595;-80
2024/01/01 01:33:52;;;;;;;9.50;4.50;;;9.30;99.90;;;;;;5028863;28;20198;-80
2024/01/01 01:36:20;;;;;;;8.07;4.50;;;9.30;99.90;;;;;;5025123;28;20223;-80
2024/01/01 01:38:47;;;;;;;9.30;3.67;;;9.30;99.90;;;;;;5023524;28;20222;-80
2024/01/01 01:41:15;;;;;;;8.63;3.77;;;9.30;99.90;;;;;;5022578;28;20202;-80
2024/01/01 01:43:43;;;;;;;10.90;4.37;;;9.30;99.90;;;;;;5028286;28;20578;-80
2024/01/01 01:46:13;;;;;;;10.80;3.30;;;9.30;99.90;;;;;;5024228;28;20195;-80
2024/01/01 01:48:40;;;;;;;10.67;3.00;;;9.30;99.90;;;;;;5024530;28;20226;-80
2024/01/01 01:51:08;;;;;;;7.63;3.67;;;9.30;99.90;;;;;;5025089;28;20202;-80
2024/01/01 01:53:36;;;;;;;6.87;2.50;;;9.30;99.90;;;;;;5024643;28;20198;-80
2024/01/01 01:56:06;;;;;;;11.67;3.00;;;9.30;99.90;;;;;;5023504;28;20230;-80
2024/01/01 01:58:35;;;;;;;7.37;2.83;;;9.30;99.90;;;;;;5043868;28;20218;-80
2024/01/01 02:01:04;;;;;;;5.97;2.50;;;9.20;99.90;;;;;;5036032;28;20203;-80
2024/01/01 02:03:31;;;;;;;6.60;2.30;;;9.20;99.90;;;;;;5024133;28;20199;-80
2024/01/01 02:05:59;;;;;;;8.93;2.43;;;9.10;99.90;;;;;;5020565;28;20645;-80
2024/01/01 02:08:26;;;;;;;7.50;2.30;;;9.20;99.90;;;;;;5021128;28;20225;-80
2024/01/01 02:10:54;;;;;;;7.93;2.23;;;9.20;99.90;;;;;;5041916;28;20187;-80
2024/01/01 02:13:26;;;;;;;7.57;2.00;;;9.30;99.90;;;;;;5020679;28;20207;-80
2024/01/01 02:15:54;;;;;;;8.40;2.33;;;9.30;99.90;;;;;;5034342;28;20712;-80
2024/01/01 02:18:25;;;;;;;7.43;2.13;;;9.20;99.90;;;;;;5040540;28;20579;-80
2024/01/01 02:20:52;;;;;;;9.13;2.70;;;9.20;99.90;;;;;;5020699;28;20203;-80
2024/01/01 02:23:21;;;;;;;5.70;1.70;;;9.20;99.90;;;;;;5023974;28;20203;-80
2024/01/01 02:25:49;;;;;;;4.67;2.10;;;9.20;99.90;;;;;;5024123;28;20195;-80
2024/01/01 02:28:16;;;;;;;6.60;2.07;;;9.30;99.90;;;;;;5032843;28;20696;-80
2024/01/01 02:30:44;;;;;;;4.77;2.20;;;9.30;99.90;;;;;;5040930;28;20199;-80
2024/01/01 02:33:14;;;;;;;5.23;1.93;;;9.30;99.90;;;;;;5027683;28;20194;-80
2024/01/01 02:35:42;;;;;;;7.97;1.73;;;9.30;99.90;;;;;;5026347;28;20215;-80
2024/01/01 02:38:09;;;;;;;6.00;2.00;;;9.20;99.90;;;;;;5044860;28;20207;-80
2024/01/01 02:40:38;;;;;;;4.17;1.83;;;9.10;99.90;;;;;;5026482;28;20212;-80
2024/01/01 02:43:06;;;;;;;6.77;1.63;;;8.80;99.90;;;;;;5024445;28;20211;-80
2024/01/01 02:45:33;;;;;;;6.23;1.80;;;8.60;99.90;;;;;;5041967;28;20185;-79
2024/01/01 02:48:01;;;;;;;5.20;2.43;;;8.30;99.90;;;;;;5043558;28;20279;-80
2024/01/01 02:50:29;;;;;;;5.40;2.30;;;8.20;99.90;;;;;;5036949;28;20195;-79
2024/01/01 02:52:56;;;;;;;6.10;1.57;;;8.10;99.90;;;;;;5038604;28;20183;-80
2024/01/01 02:55:24;;;;;;;9.77;2.20;;;7.90;99.90;;;;;;5040836;28;20191;-80
2024/01/01 02:57:52;;;;;;;7.07;1.60;;;7.80;99.90;;;;;;5038883;28;20206;-80
2024/01/01 03:00:20;;;;;;;3.03;1.10;;;7.80;99.90;;;;;;5041497;28;20201;-79
2024/01/01 03:02:51;;;;;;;3.77;1.30;;;7.50;99.90;;;;;;5036840;28;20199;-79
2024/01/01 03:05:22;;;;;;;3.53;1.10;;;7.40;99.90;;;;;;5029571;28;20187;-79
2024/01/01 03:07:49;;;;;;;4.20;1.30;;;7.40;99.90;;;;;;5032164;28;20195;-79
2024/01/01 03:10:17;;;;;;;7.47;1.40;;;7.40;99.90;;;;;;5028655;28;20198;-79
2024/01/01 03:12:44;;;;;;;3.30;1.13;;;7.40;99.90;;;;;;5032947;28;20214;-79
2024/01/01 03:15:14;;;;;;;7.20;1.47;;;7.50;99.90;;;;;;5030026;28;20195;-79
2024/01/01 03:17:42;;;;;;;3.90;1.30;;;7.50;99.90;;;;;;5029122;28;20210;-79
2024/01/01 03:20:10;;;;;;;8.30;1.70;;;7.50;99.90;;;;;;5026184;28;20199;-79
2024/01/01 03:22:38;;;;;;;5.70;1.67;;;7.50;99.90;;;;;;5027571;28;20199;-79
2024/01/01 03:25:07;;;;;;;5.20;1.63;;;7.50;99.90;;;;;;5027107;28;20217;-79
2024/01/01 03:27:35;;;;;;;6.73;2.20;;;7.50;99.90;;;;;;5028561;28;20191;-79
2024/01/01 03:30:05;;;;;;;8.00;1.63;;;7.50;99.90;;;;;;5028749;28;20225;-79
2024/01/01 03:32:35;;;;;;;7.03;1.80;;;7.60;99.90;;;;;;5027605;28;20210;-79
2024/01/01 03:35:03;;;;;;;6.90;2.23;;;7.70;99.90;;;;;;5026986;28;20570;-80
2024/01/01 03:37:30;;;;;;;6.03;1.97;;;7.60;99.90;;;;;;5045632;28;20229;-79
2024/01/01 03:39:58;;;;;;;4.30;1.70;;;7.70;99.90;;;;;;5026362;28;20585;-79
2024/01/01 03:42:25;;;;;;;10.80;2.10;;;7.80;99.90;;;;;;5026088;28;20549;-79
2024/01/01 03:44:53;;;;;;;4.87;1.90;;;7.70;99.90;;;;;;5026489;28;20666;-79
2024/01/01 03:47:20;;;;;;;6.00;2.37;;;7.80;99.90;;;;;;5026283;28;20187;-79
2024/01/01 03:49:50;;;;;;;8.10;1.67;;;7.80;99.90;;;;;;5026514;28;20307;-79
2024/01/01 03:52:18;;;;;;;7.33;2.20;;;7.80;99.90;;;;;;5026602;28;20198;-79
2024/01/01 03:54:45;;;;;;;4.13;1.57;;;7.80;99.90;;;;;;5049071;28;20205;-79
2024/01/01 03:57:13;;;;;;;6.77;2.33;;;7.80;99.90;;;;;;5033941;28;20214;-79
2024/01/01 03:59:40;;;;;;;6.37;1.80;;;7.80;99.90;;;;;;5037001;28;20230;-79
2024/01/01 04:02:09;;;;;;;10.10;2.80;;;7.80;99.90;;;;;;5039309;28;20182;-79
2024/01/01 04:04:37;;;;;;;9.20;1.93;;;7.90;99.90;;;;;;5039750;28;20205;-79
2024/01/01 04:07:06;;;;;;;8.97;2.10;;;7.90;99.90;;;;;;5037538;28;20202;-79
2024/01/01 04:09:33;;;;;;;9.53;2.47;;;7.90;99.90;;;;;;5028712;28;20222;-79
2024/01/01 04:12:01;;;;;;;12.20;2.37;;;7.90;99.90;;;;;;5028284;28;20198;-79
2024/01/01 04:14:28;;;;;;;10.60;2.50;;;7.90;99.90;;;;;;5048345;28;20195;-79
2024/01/01 04:16:55;;;;;;;7.37;2.33;;;7.90;99.90;;;;;;5029970;28;20211;-79
2024/01/01 04:19:23;;;;;;;4.40;2.33;;;7.90;99.90;;;;;;5030400;28;20226;-79
2024/01/01 04:21:50;;;;;;;11.00;2.53;;;7.90;99.90;;;;;;5028973;28;20210;-79
2024/01/01 04:24:19;;;;;;;7.73;2.50;;;7.90;99.90;;;;;;5029105;28;20203;-79
2024/01/01 04:26:47;;;;;;;9.40;2.20;;;7.90;99.90;;;;;;5028709;28;20200;-79
2024/01/01 04:29:14;;;;;;;10.90;2.87;;;8.00;99.90;;;;;;5030091;28;20210;-79
2024/01/01 04:31:42;;;;;;;8.23;2.60;;;8.00;99.90;;;;;;5045220;28;20198;-79
2024/01/01 04:34:09;;;;;;;6.27;2.47;;;8.10;99.90;;;;;;5022801;28;20195;-79
2024/01/01 04:36:37;;;;;;;7.40;2.17;;;8.10;99.90;;;;;;5030638;28;20582;-79
2024/01/01 04:39:04;;;;;;;10.77;2.00;;;8.10;99.90;;;;;;5023487;28;20580;-79
2024/01/01 04:41:34;;;;;;;14.00;2.97;;;8.10;99.90;;;;;;5030427;28;20203;-79
2024/01/01 04:44:01;;;;;;;8.60;2.47;;;8.10;99.90;;;;;;5040464;28;20568;-79
2024/01/01 04:46:29;;;;;;;9.70;2.57;;;8.10;99.90;;;;;;5040700;28;20548;-79
2024/01/01 04:48:56;;;;;;;12.30;3.50;;;8.20;99.90;;;;;;5022732;28;20219;-79
2024/01/01 04:51:24;;;;;;;12.10;3.10;;;8.20;99.90;;;;;;5039816;28;20199;-79
2024/01/01 04:53:52;;;;;;;10.37;3.03;;;8.10;99.90;;;;;;5039669;28;20210;-79
2024/01/01 04:56:21;;;;;;;10.27;2.40;;;8.20;99.90;;;;;;5021487;28;20206;-79
2024/01/01 04:58:51;;;;;;;8.63;2.40;;;8.20;99.90;;;;;;5024078;28;20222;-79
2024/01/01 05:01:19;;;;;;;13.30;2.83;;;8.20;99.90;;;;;;5021329;28;20227;-79
2024/01/01 05:03:46;;;;;;;12.60;2.57;;;8.20;99.90;;;;;;5042195;28;20194;-79
2024/01/01 05:06:14;;;;;;;6.37;1.87;;;8.20;99.90;;;;;;5038607;28;20208;-79
2024/01/01 05:08:41;;;;;;;8.63;2.30;;;8.30;99.90;;;;;;5023086;28;20697;-79
2024/01/01 05:11:09;;;;;;;6.40;2.20;;;8.20;99.90;;;;;;5022800;28;20538;-79
2024/01/01 05:13:37;;;;;;;14.80;2.73;;;8.30;99.90;;;;;;5042598;28;20202;-79
2024/01/01 05:16:09;;;;;;;4.77;2.10;;;8.30;99.90;;;;;;5031295;28;20195;-79
2024/01/01 05:18:37;;;;;;;8.90;2.40;;;8.30;99.90;;;;;;5016488;28;20229;-79
2024/01/01 05:21:05;;;;;;;14.20;2.83;;;8.30;99.90;;;;;;5023584;28;20209;-79
2024/01/01 05:23:33;;;;;;;7.00;2.60;;;8.40;99.90;;;;;;5061591;28;20209;-79
2024/01/01 05:26:00;;;;;;;10.50;2.07;;;8.40;99.90;;;;;;5036057;28;20206;-79
2024/01/01 05:28:28;;;;;;;9.17;2.70;;;8.40;99.90;;;;;;5019946;28;20231;-79
2024/01/01 05:30:56;;;;;;;7.50;2.30;;;8.40;99.90;;;;;;5014973;28;20198;-79
2024/01/01 05:33:24;;;;;;;8.23;1.97;;;8.40;99.90;;;;;;5021567;28;20199;-79
2024/01/01 05:35:52;;;;;;;10.53;2.60;;;8.40;99.90;;;;;;5020066;28;20221;-79
2024/01/01 05:38:19;;;;;;;9.63;2.10;;;8.50;99.90;;;;;;5020346;28;20226;-79
2024/01/01 05:40:47;;;;;;;8.73;2.40;;;8.40;99.90;;;;;;5018059;28;20200;-79
2024/01/01 05:43:15;;;;;;;7.63;2.13;;;8.50;99.90;;;;;;5001175;28;20199;-79
2024/01/01 05:45:42;;;;;;;10.83;2.70;;;8.50;99.90;;;;;;5008524;28;20199;-79
2024/01/01 05:48:10;;;;;;;8.23;2.03;;;8.50;99.90;;;;;;5016743;28;20216;-79
2024/01/01 05:50:39;;;;;;;13.30;2.53;;;8.50;99.90;;;;;;5017093;28;20180;-80
2024/01/01 05:53:06;;;;;;;6.73;2.07;;;8.50;99.90;;;;;;4998725;28;20204;-80
2024/01/01 05:55:34;;;;;;;7.00;2.00;;;8.50;99.90;;;;;;5018763;28;20195;-80
2024/01/01 05:58:02;;;;;;;10.40;1.77;;;8.50;99.90;;;;;;5036908;28;20222;-80
2024/01/01 06:00:30;;;;;;;11.13;2.37;;;8.50;99.90;;;;;;5018829;28;20210;-81
2024/01/01 06:02:57;;;;;;;13.10;2.40;;;8.50;99.90;;;;;;5019062;28;20198;-81
2024/01/01 06:05:24;;;;;;;9.93;2.00;;;8.50;99.90;;;;;;5021580;28;20198;-80
2024/01/01 06:07:54;;;;;;;11.37;2.73;;;8.50;99.90;;;;;;5040788;28;20191;-80
2024/01/01 06:10:23;;;;;;;10.33;2.23;;;8.50;99.90;;;;;;5022043;28;20564;-80
2024/01/01 06:12:50;;;;;;;8.77;1.83;;;8.50;99.90;;;;;;5021887;28;20187;-80
2024/01/01 06:15:18;;;;;;;13.80;2.20;;;8.50;99.90;;;;;;5021978;28;20207;-80
2024/01/01 06:17:45;;;;;;;7.70;1.70;;;8.50;99.90;;;;;;5018698;28;20242;-80
2024/01/01 06:20:13;;;;;;;8.27;2.23;;;8.50;99.90;;;;;;5007943;28;20217;-80
2024/01/01 06:22:40;;;;;;;11.90;2.20;;;8.60;99.90;;;;;;5039391;28;20191;-80
2024/01/01 06:25:10;;;;;;;10.80;2.53;;;8.50;99.90;;;;;;5021060;28;20199;-80
2024/01/01 06:27:37;;;;;;;17.50;2.40;;;8.50;99.90;;;;;;5024708;28;20195;-80
2024/01/01 06:30:06;;;;;;;9.27;2.23;;;8.50;99.90;;;;;;5039024;28;20207;-81
2024/01/01 06:32:33;;;;;;;5.83;2.03;;;8.50;99.90;;;;;;5021155;28;20210;-80
2024/01/01 06:35:01;;;;;;;10.13;2.30;;;8.50;99.90;;;;;;5021337;28;20207;-80
2024/01/01 06:37:28;;;;;;;10.13;2.53;;;8.50;99.90;;;;;;5020853;28;20210;-80
2024/01/01 06:39:56;;;;;;;10.20;2.67;;;8.50;99.90;;;;;;5039469;28;20221;-80
2024/01/01 06:42:25;;;;;;;5.27;1.50;;;8.50;99.90;;;;;;5022206;28;20203;-81
2024/01/01 06:44:52;;;;;;;8.73;2.43;;;8.50;99.90;;;;;;5021521;28;20199;-80
2024/01/01 06:47:22;;;;;;;8.07;2.00;;;8.50;99.90;;;;;;5022161;28;20195;-80
2024/01/01 06:49:49;;;;;;;7.40;2.43;;;8.50;99.90;;;;;;5022485;28;20223;-80
2024/01/01 06:52:16;;;;;;;6.73;2.13;;;8.50;99.90;;;;;;5021637;28;20534;-80
2024/01/01 06:54:44;;;;;;;6.50;1.80;;;8.50;99.90;;;;;;5016988;28;20207;-80
2024/01/01 06:57:11;;;;;;;5.83;1.93;;;8.50;99.90;;;;;;5016969;28;20207;-80
2024/01/01 06:59:41;;;;;;;7.97;2.10;;;8.40;99.90;;;;;;5019958;28;20211;-80
2024/01/01 07:02:09;;;;;;;8.33;1.87;;;8.40;99.90;;;;;;5020282;28;20672;-80
2024/01/01 07:04:38;;;;;;;6.43;1.77;;;8.30;99.90;;;;;;5019597;28;20199;-80
2024/01/01 07:07:06;;;;;;;7.93;1.90;;;8.30;99.90;;;;;;5020805;28;20203;-80
2024/01/01 07:09:33;;;;;;;10.90;2.67;;;8.20;99.90;;;;;;5020751;28;20222;-80
2024/01/01 07:12:18;;;;;;;5.83;2.10;;;8.20;99.90;;;;;;5020352;28;20209;-80
2024/01/01 07:14:47;;;;;;;11.17;2.00;;;8.10;99.90;;;;;;5036249;28;20183;-79
2024/01/01 07:17:15;;;;;;;7.87;2.20;;;8.80;99.90;;;;;;5035950;28;21381;-79
2024/01/01 07:19:44;;;;;;;7.43;2.20;;;8.30;99.90;;;;;;5018577;28;20226;-80
2024/01/01 07:22:38;;;;;;;5.90;1.83;;;8.00;99.90;;;;;;5028725;28;20564;-81
2024/01/01 07:25:06;;;;;;;6.67;1.90;;;7.90;99.90;;;;;;4911255;29;20203;-79
2024/01/01 07:27:33;;;;;;;5.87;1.43;;;7.90;99.90;;;;;;4973563;28;20206;-79
2024/01/01 07:30:04;;;;;;;8.23;1.77;;;7.80;99.90;;;;;;5025186;28;20581;-79
2024/01/01 07:32:31;;;;;;;5.50;1.93;;;7.80;99.90;;;;;;5019768;28;20203;-79
2024/01/01 07:35:01;;;;;;;4.60;1.60;;;7.80;99.90;;;;;;5028164;28;20226;-80
2024/01/01 07:37:28;;;;;;;7.83;1.80;;;7.80;99.90;;;;;;5032845;28;20221;-79
2024/01/01 07:39:55;;;;;;;6.70;1.70;;;7.80;99.90;;;;;;5034198;28;20690;-78
2024/01/01 07:42:25;;;;;;;9.57;2.60;;;7.80;99.90;;;;;;5036230;28;20690;-79
2024/01/01 07:44:52;;;;;;;5.20;1.57;;;7.80;99.90;;;;;;5029826;28;20652;-79
2024/01/01 07:47:21;;;;;;;8.37;2.03;;;7.80;99.90;;;;;;5034112;28;20206;-79
2024/01/01 07:49:49;;;;;;;6.50;1.33;;;7.80;99.90;;;;;;5030406;28;20232;-79
2024/01/01 07:52:17;;;;;;;5.30;1.63;;;7.80;99.90;;;;;;5035302;28;20190;-79
2024/01/01 07:54:45;;;;;;;6.70;1.97;;;7.80;99.90;;;;;;5040796;28;20202;-79
2024/01/01 07:57:18;;;;;;;7.63;1.70;;;7.80;99.90;;;;;;5020456;28;20553;-80
2024/01/01 07:59:46;;;;;;;8.00;2.43;;;7.90;99.90;;;;;;5028400;28;20219;-80
2024/01/01 08:02:18;;;;;;;7.03;1.83;;;7.90;99.90;;;;;;5032303;28;20564;-78
2024/01/01 08:04:47;;;;;;;6.17;2.73;;;7.80;99.90;;;;;;5020290;28;20202;-79
2024/01/01 08:07:14;;;;;;;5.90;1.73;;;7.90;99.90;;;;;;5017000;28;20198;-78
2024/01/01 08:09:41;;;;;;;3.57;1.80;;;7.90;99.90;;;;;;5017836;28;20229;-82
2024/01/01 08:12:09;;;;;;;5.37;2.17;;;7.90;99.90;;;;;;5025874;28;20202;-81
2024/01/01 08:14:40;;;;;;;7.73;1.73;;;7.90;99.90;;;;;;5022683;28;20198;-80
2024/01/01 08:17:08;;;;;;;5.37;1.60;;;7.90;99.90;;;;;;5041621;28;20191;-79
2024/01/01 08:19:36;;;;;;;5.00;1.40;;;7.80;99.90;;;;;;5020429;28;20241;-82
2024/01/01 08:22:05;;;;;;;5.93;2.60;;;7.80;99.90;;;;;;5024939;28;20202;-80
2024/01/01 08:24:32;;;;;;;9.57;1.73;;;7.80;99.90;;;;;;5019935;28;20210;-80
2024/01/01 08:27:00;;;;;;;8.73;1.80;;;7.80;99.90;;;;;;5020781;28;20194;-79
2024/01/01 08:29:27;;;;;;;4.63;1.47;;;7.80;99.90;;;;;;5015591;28;20221;-78
2024/01/01 08:31:56;;;;;;;4.37;1.43;;;7.80;99.90;;;;;;5016140;28;20210;-78
2024/01/01 08:34:23;;;;;;;3.10;1.40;;;7.80;99.90;;;;;;5015323;28;20203;-79
2024/01/01 08:36:51;;;;;;;6.30;1.57;;;7.80;99.90;;;;;;5015644;28;20199;-79
2024/01/01 08:39:20;;;;;;;4.93;2.00;;;7.80;99.90;;;;;;5015176;28;20214;-78
2024/01/01 08:41:48;;;;;;;6.67;2.23;;;7.80;99.90;;;;;;5015491;28;20701;-78
2024/01/01 08:44:15;;;;;;;10.20;2.40;;;7.80;99.90;;;;;;5015290;28;20211;-78
2024/01/01 08:46:43;;;;;;;4.70;1.90;;;7.80;99.90;;;;;;5015804;28;20198;-78
2024/01/01 08:49:10;;;;;;;4.67;1.00;;;7.80;99.90;;;;;;5017590;28;20226;-81
2024/01/01 08:51:37;;;;;;;4.77;1.70;;;7.80;99.90;;;;;;5016750;28;20207;-77
2024/01/01 08:54:05;;;;;;;4.07;1.57;;;7.80;99.90;;;;;;5014640;28;20211;-78
2024/01/01 08:56:34;;;;;;;6.23;1.50;;;7.90;99.90;;;;;;5015806;28;20206;-78
2024/01/01 08:59:01;;;;;;;5.70;1.57;;;7.90;99.90;;;;;;5014976;28;20693;-78
2024/01/01 09:01:29;;;;;;;5.60;1.13;;;7.90;99.90;;;;;;5015358;28;20203;-78
2024/01/01 09:04:00;;;;;;;3.20;1.17;;;7.90;99.90;;;;;;5014802;28;20202;-78
2024/01/01 09:06:28;;;;;;;9.87;2.33;;;7.90;99.90;;;;;;5033868;28;20194;-80
2024/01/01 09:08:55;;;;;;;4.60;1.33;;;7.80;99.90;;;;;;5017759;28;20688;-80
2024/01/01 09:11:23;;;;;;;3.30;1.17;;;7.90;99.90;;;;;;5018221;28;20678;-80
2024/01/01 09:13:51;;;;;;;4.97;1.57;;;7.90;99.90;;;;;;5017862;28;20557;-80
2024/01/01 09:16:19;;;;;;;5.70;1.67;;;7.90;99.90;;;;;;5018141;28;20201;-80
2024/01/01 09:18:46;;;;;;;7.20;1.43;;;7.90;99.90;;;;;;5014328;28;20689;-81
2024/01/01 09:21:15;;;;;;;4.37;1.27;;;7.90;99.90;;;;;;5013889;28;20207;-80
2024/01/01 09:23:42;;;;;;;3.10;1.20;;;7.90;99.90;;;;;;5016663;28;20202;-80
2024/01/01 09:26:09;;;;;;;3.77;1.17;;;7.90;99.90;;;;;;5022206;28;20190;-81
2024/01/01 09:28:37;;;;;;;3.37;1.50;;;7.90;99.90;;;;;;5018843;28;20226;-78
2024/01/01 09:31:16;;;;;;;4.23;1.50;;;7.90;99.90;;;;;;5012348;28;20207;-77
2024/01/01 09:33:43;;;;;;;6.70;1.87;;;7.90;99.90;;;;;;5026316;28;20203;-78
2024/01/01 09:36:13;;;;;;;6.43;1.50;;;7.90;99.90;;;;;;5011160;28;20200;-79
2024/01/01 09:38:41;;;;;;;4.50;1.77;;;8.00;99.90;;;;;;4995600;28;20339;-77
2024/01/01 09:41:11;;;;;;;3.07;1.27;;;7.90;99.90;;;;;;5007323;28;20198;-78
2024/01/01 09:43:39;;;;;;;4.07;1.30;;;7.90;99.90;;;;;;5011658;28;20200;-77
2024/01/01 09:46:07;;;;;;;4.47;1.47;;;7.90;99.90;;;;;;4994987;28;20195;-77
2024/01/01 09:48:36;;;;;;;4.33;1.10;;;8.00;99.90;;;;;;5000353;28;20227;-77
2024/01/01 09:51:04;;;;;;;5.70;1.30;;;7.90;99.90;;;;;;5032256;28;20183;-77
2024/01/01 09:53:32;;;;;;;4.33;1.50;;;7.90;99.90;;;;;;5015077;28;20210;-80
2024/01/01 09:55:59;;;;;;;3.93;1.30;;;7.90;99.90;;;;;;5050823;28;20203;-79
2024/01/01 09:58:27;;;;;;;3.10;1.57;;;7.90;99.90;;;;;;5054429;28;20202;-79
2024/01/01 10:01:10;;;;;;;8.33;1.77;;;7.90;99.90;;;;;;5034496;28;20229;-79
2024/01/01 10:03:38;;;;;;;6.43;1.73;;;7.90;99.90;;;;;;5034709;28;20205;-79
2024/01/01 10:06:15;;;;;;;4.37;1.60;;;7.90;99.90;;;;;;5031890;28;20221;-79
2024/01/01 10:08:43;;;;;;;5.40;1.67;;;7.90;99.90;;;;;;5021991;28;20237;-79
2024/01/01 10:11:18;;;;;;;3.47;1.20;;;7.90;99.90;;;;;;5015006;28;20199;-79
2024/01/01 10:13:46;;;;;;;4.00;1.40;;;7.90;99.90;;;;;;5015153;28;20212;-80
2024/01/01 10:16:25;;;;;;;5.17;1.67;;;7.90;99.90;;;;;;5013660;28;20218;-78
2024/01/01 10:18:56;;;;;;;3.97;1.43;;;7.90;99.90;;;;;;5011516;28;20222;-78
2024/01/01 10:21:34;;;;;;;5.90;1.73;;;7.90;99.90;;;;;;5011125;28;20664;-77
2024/01/01 10:24:13;;;;;;;6.47;1.70;;;7.90;99.90;;;;;;4994785;28;20206;-78
2024/01/01 10:26:44;;;;;;;5.57;1.87;;;7.90;99.90;;;;;;4996634;28;20206;-77
2024/01/01 10:29:13;;;;;;;7.77;1.47;;;7.90;99.90;;;;;;5013140;28;20223;-78
2024/01/01 10:31:44;;;;;;;4.37;1.57;;;8.00;99.90;;;;;;5008173;28;20203;-78
2024/01/01 10:34:13;;;;;;;6.57;2.30;;;7.90;99.90;;;;;;5013828;28;20198;-77
2024/01/01 10:36:42;;;;;;;7.10;1.77;;;7.90;99.90;;;;;;5026655;28;20202;-78
2024/01/01 10:39:10;;;;;;;5.57;1.67;;;8.00;99.90;;;;;;5014245;28;20230;-78
2024/01/01 10:41:40;;;;;;;4.77;1.47;;;8.00;99.90;;;;;;5013691;28;20536;-78
2024/01/01 10:44:08;;;;;;;8.53;1.87;;;8.00;99.90;;;;;;4996023;28;20196;-77
2024/01/01 10:46:37;;;;;;;3.20;1.33;;;7.90;99.90;;;;;;5022025;28;20210;-77
2024/01/01 10:49:08;;;;;;;5.10;1.63;;;7.90;99.90;;;;;;5013454;28;20238;-78
2024/01/01 10:51:50;;;;;;;7.30;1.80;;;8.00;99.90;;;;;;5024293;28;20557;-77
2024/01/01 10:54:37;;;;;;;5.20;1.43;;;8.00;99.90;;;;;;5017984;28;20579;-77
2024/01/01 10:57:16;;;;;;;6.37;2.17;;;8.00;99.90;;;;;;5013139;28;20210;-78
2024/01/01 11:00:01;;;;;;;4.57;1.70;;;8.00;99.90;;;;;;5004767;28;20227;-78
2024/01/01 11:02:29;;;;;;;5.87;1.93;;;8.10;99.90;;;;;;5003048;28;20203;-78
2024/01/01 11:05:07;;;;;;;5.37;1.60;;;8.10;99.90;;;;;;5035148;28;20190;-78
2024/01/01 11:07:59;;;;;;;4.97;1.77;;;8.10;99.90;;;;;;5035187;28;20199;-78
2024/01/01 11:10:41;;;;;;;6.63;2.23;;;8.10;99.90;;;;;;5014458;28;20200;-78
2024/01/01 11:13:12;;;;;;;6.90;1.63;;;8.10;99.90;;;;;;5006562;28;20203;-78
2024/01/01 11:15:41;;;;;;;4.73;1.40;;;8.20;99.90;;;;;;5013576;28;20208;-78
2024/01/01 11:18:44;;;;;;;5.07;1.60;;;8.20;99.90;;;;;;5014995;28;20220;-77
2024/01/01 11:21:26;;;;;;;5.97;1.70;;;8.20;99.90;;;;;;5034795;28;20202;-78
2024/01/01 11:23:56;;;;;;;4.27;1.87;;;8.20;99.90;;;;;;5025911;28;20213;-77
2024/01/01 11:26:32;;;;;;;3.87;1.40;;;8.20;99.90;;;;;;5033438;28;20191;-78
2024/01/01 11:29:02;;;;;;;4.90;1.67;;;8.30;99.90;;;;;;5014302;28;20223;-78
2024/01/01 11:31:31;;;;;;;5.20;1.50;;;8.30;99.90;;;;;;5016140;28;20649;-78
2024/01/01 11:34:06;;;;;;;5.17;1.60;;;8.20;99.90;;;;;;5034276;28;20209;-78
2024/01/01 11:36:34;;;;;;;5.93;2.17;;;8.20;99.90;;;;;;5016357;28;20207;-80
2024/01/01 11:39:03;;;;;;;4.00;1.90;;;8.30;99.90;;;;;;5036019;28;20218;-78
2024/01/01 11:41:33;;;;;;;6.13;2.20;;;8.30;99.90;;;;;;5016429;28;20222;-78
2024/01/01 11:44:10;;;;;;;3.67;1.60;;;8.30;99.90;;;;;;5017051;28;20211;-77
2024/01/01 11:46:38;;;;;;;7.93;1.63;;;8.40;99.90;;;;;;5016905;28;20665;-77
2024/01/01 11:49:07;;;;;;;6.17;1.80;;;8.30;99.90;;;;;;5029088;28;20219;-77
2024/01/01 11:51:53;;;;;;;3.90;1.73;;;8.40;99.90;;;;;;5008258;28;20195;-78
2024/01/01 11:54:25;;;;;;;2.83;1.67;;;8.40;99.90;;;;;;5012938;28;20199;-78
2024/01/01 11:56:56;;;;;;;6.73;2.30;;;8.30;99.90;;;;;;5007777;28;20199;-78
2024/01/01 11:59:25;;;;;;;4.67;2.07;;;8.40;99.90;;;;;;5019983;28;20222;-77
2024/01/01 12:01:52;;;;;;;5.33;1.70;;;8.40;99.90;;;;;;5013585;28;20215;-78
2024/01/01 12:04:21;;;;;;;5.20;1.53;;;8.30;99.90;;;;;;5016736;28;20198;-78
2024/01/01 12:06:51;;;;;;;5.53;2.53;;;8.40;99.90;;;;;;5035344;28;20191;-77
2024/01/01 12:09:20;;;;;;;7.43;1.77;;;8.40;99.90;;;;;;5034457;28;20217;-78
2024/01/01 12:11:49;;;;;;;7.60;2.07;;;8.40;99.90;;;;;;5014467;28;20202;-78
2024/01/01 12:14:24;;;;;;;4.87;2.07;;;8.40;99.90;;;;;;5029616;28;20187;-76
2024/01/01 12:16:52;;;;;;;8.00;2.40;;;8.50;99.90;;;;;;5020208;28;20657;-78
2024/01/01 12:19:22;;;;;;;7.03;2.63;;;8.50;99.90;;;;;;5019107;28;20229;-78
2024/01/01 12:21:52;;;;;;;2.77;1.53;;;8.40;99.90;;;;;;5016722;28;20208;-77
2024/01/01 12:24:20;;;;;;;7.20;2.10;;;8.40;99.90;;;;;;5013020;28;20207;-77
2024/01/01 12:26:51;;;;;;;6.83;2.20;;;8.40;99.90;;;;;;5013171;28;20199;-77
2024/01/01 12:29:20;;;;;;;8.47;1.90;;;8.40;99.90;;;;;;5016085;28;20219;-77
2024/01/01 12:31:48;;;;;;;6.17;2.00;;;8.50;99.90;;;;;;5015739;28;20191;-78
2024/01/01 12:34:17;;;;;;;8.37;1.93;;;8.50;99.90;;;;;;5015820;28;20203;-77
2024/01/01 12:36:46;;;;;;;7.03;2.23;;;8.50;99.90;;;;;;5015931;28;20195;-77
2024/01/01 12:39:16;;;;;;;8.17;2.17;;;8.50;99.90;;;;;;5016412;28;20211;-78
2024/01/01 12:41:44;;;;;;;5.53;1.67;;;8.50;99.90;;;;;;5017286;28;20207;-78
2024/01/01 12:44:16;;;;;;;6.67;2.00;;;8.50;99.90;;;;;;5020019;28;20206;-77
2024/01/01 12:46:43;;;;;;;4.10;1.63;;;8.50;99.90;;;;;;5016463;28;20204;-78
2024/01/01 12:49:10;;;;;;;5.67;2.17;;;8.50;99.90;;;;;;5018246;28;20599;-78
2024/01/01 12:51:38;;;;;;;7.23;2.73;;;8.60;99.90;;;;;;5020487;28;20196;-78
2024/01/01 12:54:05;;;;;;;7.97;2.10;;;8.60;99.90;;;;;;5041322;28;20199;-78
2024/01/01 12:56:33;;;;;;;4.93;1.83;;;8.60;99.90;;;;;;5020563;28;20195;-78
2024/01/01 12:59:02;;;;;;;6.90;3.10;;;8.60;99.90;;;;;;5020105;28;20215;-78
2024/01/01 13:01:31;;;;;;;6.50;2.23;;;8.60;99.90;;;;;;5020919;28;20222;-78
2024/01/01 13:03:58;;;;;;;10.27;2.13;;;8.60;99.90;;;;;;5020596;28;20214;-78